Time,TemperatureF,DewpointF,PressureIn,WindDirection,WindDirectionDegrees,WindSpeedMPH,WindSpeedGustMPH,Humidity,HourlyPrecipIn,Conditions,Clouds,dailyrainin,SoftwareType,DateUTC
2013-02-28 00:00:00,34.0,30.0,29.56,West,270,3.0,7.0,85,0.00,,,-99.99,WeatherLink 5.5,2013-02-28 05:00:00,
2013-02-28 00:05:00,34.0,30.0,29.55,WNW,292,2.0,9.0,85,0.00,,,-99.99,WeatherLink 5.5,2013-02-28 05:05:00,
2013-02-28 00:10:00,34.0,30.0,29.55,WNW,292,2.0,7.0,85,0.00,,,-99.99,WeatherLink 5.5,2013-02-28 05:10:00,
2013-02-28 00:15:00,34.0,30.0,29.55,WNW,292,2.0,7.0,85,0.00,,,-99.99,WeatherLink 5.5,2013-02-28 05:15:00,
2013-02-28 00:20:00,34.0,30.0,29.55,WNW,292,4.0,9.0,85,0.00,,,-99.99,WeatherLink 5.5,2013-02-28 05:20:00,
2013-02-28 00:25:00,34.0,30.0,29.55,West,270,2.0,7.0,85,0.00,,,-99.99,WeatherLink 5.5,2013-02-28 05:25:00,
2013-02-28 00:30:00,34.0,30.0,29.55,West,270,2.0,7.0,85,0.00,,,-99.99,WeatherLink 5.5,2013-02-28 05:30:00,
2013-02-28 00:35:00,34.0,30.0,29.55,West,270,1.0,6.0,85,0.00,,,-99.99,WeatherLink 5.5,2013-02-28 05:35:00,
2013-02-28 00:40:00,34.0,30.0,29.55,West,270,1.0,4.0,85,0.00,,,-99.99,WeatherLink 5.5,2013-02-28 05:40:00,
2013-02-28 00:45:00,34.0,30.0,29.55,West,270,1.0,4.0,85,0.00,,,-99.99,WeatherLink 5.5,2013-02-28 05:45:00,
2013-02-28 00:50:00,33.8,29.8,29.55,West,270,1.0,4.0,85,0.00,,,-99.99,WeatherLink 5.5,2013-02-28 05:50:00,
2013-02-28 00:55:00,33.8,29.8,29.55,West,270,3.0,8.0,85,0.00,,,-99.99,WeatherLink 5.5,2013-02-28 05:55:00,
2013-02-28 01:00:00,33.8,29.8,29.55,West,270,3.0,8.0,85,0.00,,,-99.99,WeatherLink 5.5,2013-02-28 06:00:00,
2013-02-28 01:05:00,33.7,29.7,29.55,West,270,3.0,7.0,85,0.00,,,-99.99,WeatherLink 5.5,2013-02-28 06:05:00,
2013-02-28 01:10:00,33.7,29.7,29.55,WNW,292,0.0,4.0,85,0.00,,,-99.99,WeatherLink 5.5,2013-02-28 06:10:00,
2013-02-28 01:15:00,33.7,29.7,29.55,WNW,292,0.0,4.0,85,0.00,,,-99.99,WeatherLink 5.5,2013-02-28 06:15:00,
2013-02-28 01:20:00,33.5,29.5,29.55,West,270,2.0,6.0,85,0.00,,,-99.99,WeatherLink 5.5,2013-02-28 06:20:00,
2013-02-28 01:25:00,33.5,29.5,29.55,West,270,2.0,7.0,85,0.00,,,-99.99,WeatherLink 5.5,2013-02-28 06:25:00,
2013-02-28 01:30:00,33.5,29.5,29.55,West,270,2.0,7.0,85,0.00,,,-99.99,WeatherLink 5.5,2013-02-28 06:30:00,
2013-02-28 01:35:00,33.4,29.4,29.55,West,270,0.0,6.0,85,0.00,,,-99.99,WeatherLink 5.5,2013-02-28 06:35:00,
2013-02-28 01:40:00,33.4,29.4,29.55,WSW,247,2.0,7.0,85,0.00,,,-99.99,WeatherLink 5.5,2013-02-28 06:40:00,
2013-02-28 01:45:00,33.4,29.4,29.55,WSW,247,2.0,7.0,85,0.00,,,-99.99,WeatherLink 5.5,2013-02-28 06:45:00,
2013-02-28 01:50:00,33.2,29.2,29.55,West,270,1.0,2.0,85,0.00,,,-99.99,WeatherLink 5.5,2013-02-28 06:50:00,
2013-02-28 01:55:00,33.2,29.2,29.55,West,270,0.0,2.0,85,0.00,,,-99.99,WeatherLink 5.5,2013-02-28 06:55:00,
2013-02-28 02:00:00,33.2,29.2,29.55,West,270,0.0,2.0,85,0.00,,,-99.99,WeatherLink 5.5,2013-02-28 07:00:00,
2013-02-28 02:05:00,33.1,29.1,29.55,SW,225,1.0,4.0,85,0.00,,,-99.99,WeatherLink 5.5,2013-02-28 07:05:00,
2013-02-28 02:10:00,32.9,28.9,29.55,SW,225,1.0,4.0,85,0.00,,,-99.99,WeatherLink 5.5,2013-02-28 07:10:00,
2013-02-28 02:15:00,32.9,28.9,29.55,SW,225,1.0,4.0,85,0.00,,,-99.99,WeatherLink 5.5,2013-02-28 07:15:00,
2013-02-28 02:20:00,32.9,28.9,29.55,SW,225,0.0,4.0,85,0.00,,,-99.99,WeatherLink 5.5,2013-02-28 07:20:00,
2013-02-28 02:25:00,32.9,28.9,29.55,SW,225,0.0,1.0,85,0.00,,,-99.99,WeatherLink 5.5,2013-02-28 07:25:00,
2013-02-28 02:30:00,32.9,28.9,29.55,SW,225,0.0,1.0,85,0.00,,,-99.99,WeatherLink 5.5,2013-02-28 07:30:00,
2013-02-28 02:35:00,32.8,28.8,29.54,North,-999,0.0,0.0,85,0.00,,,-99.99,WeatherLink 5.5,2013-02-28 07:35:00,
2013-02-28 02:40:00,32.8,28.8,29.54,SW,225,0.0,4.0,85,0.00,,,-99.99,WeatherLink 5.5,2013-02-28 07:40:00,
2013-02-28 02:45:00,32.8,28.8,29.54,SW,225,0.0,4.0,85,0.00,,,-99.99,WeatherLink 5.5,2013-02-28 07:45:00,
2013-02-28 02:50:00,32.8,28.8,29.55,SW,225,0.0,2.0,85,0.00,,,-99.99,WeatherLink 5.5,2013-02-28 07:50:00,
2013-02-28 02:55:00,32.8,28.8,29.55,North,-999,0.0,0.0,85,0.00,,,-99.99,WeatherLink 5.5,2013-02-28 07:55:00,
2013-02-28 03:00:00,32.8,28.8,29.55,North,-999,0.0,0.0,85,0.00,,,-99.99,WeatherLink 5.5,2013-02-28 08:00:00,
2013-02-28 03:05:00,32.6,28.6,29.55,North,-999,0.0,0.0,85,0.00,,,-99.99,WeatherLink 5.5,2013-02-28 08:05:00,
2013-02-28 03:10:00,32.6,28.6,29.55,North,-999,0.0,0.0,85,0.00,,,-99.99,WeatherLink 5.5,2013-02-28 08:10:00,
2013-02-28 03:15:00,32.6,28.6,29.55,North,-999,0.0,0.0,85,0.00,,,-99.99,WeatherLink 5.5,2013-02-28 08:15:00,
2013-02-28 03:20:00,32.6,28.6,29.56,North,-999,0.0,0.0,85,0.00,,,-99.99,WeatherLink 5.5,2013-02-28 08:20:00,
2013-02-28 03:25:00,32.6,28.6,29.56,North,-999,0.0,0.0,85,0.00,,,-99.99,WeatherLink 5.5,2013-02-28 08:25:00,
2013-02-28 03:30:00,32.6,28.6,29.56,North,-999,0.0,0.0,85,0.00,,,-99.99,WeatherLink 5.5,2013-02-28 08:30:00,
2013-02-28 03:35:00,32.6,28.6,29.55,North,-999,0.0,0.0,85,0.00,,,-99.99,WeatherLink 5.5,2013-02-28 08:35:00,
2013-02-28 03:40:00,32.6,28.6,29.55,North,-999,0.0,0.0,85,0.00,,,-99.99,WeatherLink 5.5,2013-02-28 08:40:00,
2013-02-28 03:45:00,32.6,28.6,29.55,North,-999,0.0,0.0,85,0.00,,,-99.99,WeatherLink 5.5,2013-02-28 08:45:00,
2013-02-28 03:50:00,32.6,28.6,29.55,North,-999,0.0,0.0,85,0.00,,,-99.99,WeatherLink 5.5,2013-02-28 08:50:00,
2013-02-28 03:55:00,32.6,28.6,29.55,North,-999,0.0,0.0,85,0.00,,,-99.99,WeatherLink 5.5,2013-02-28 08:55:00,
2013-02-28 04:00:00,32.6,28.6,29.55,North,-999,0.0,0.0,85,0.00,,,-99.99,WeatherLink 5.5,2013-02-28 09:00:00,
2013-02-28 04:05:00,32.6,28.6,29.55,SW,225,0.0,1.0,85,0.00,,,-99.99,WeatherLink 5.5,2013-02-28 09:05:00,
2013-02-28 04:10:00,32.6,28.6,29.55,North,-999,0.0,0.0,85,0.00,,,-99.99,WeatherLink 5.5,2013-02-28 09:10:00,
2013-02-28 04:15:00,32.6,28.6,29.55,North,-999,0.0,0.0,85,0.00,,,-99.99,WeatherLink 5.5,2013-02-28 09:15:00,
2013-02-28 04:20:00,32.5,28.5,29.56,North,-999,0.0,0.0,85,0.00,,,-99.99,WeatherLink 5.5,2013-02-28 09:20:00,
2013-02-28 04:25:00,32.5,28.5,29.56,North,-999,0.0,0.0,85,0.00,,,-99.99,WeatherLink 5.5,2013-02-28 09:25:00,
2013-02-28 04:30:00,32.5,28.5,29.56,North,-999,0.0,0.0,85,0.00,,,-99.99,WeatherLink 5.5,2013-02-28 09:30:00,
2013-02-28 04:35:00,32.5,28.5,29.56,SW,225,0.0,2.0,85,0.00,,,-99.99,WeatherLink 5.5,2013-02-28 09:35:00,
2013-02-28 04:40:00,32.5,28.5,29.56,SW,225,0.0,1.0,85,0.00,,,-99.99,WeatherLink 5.5,2013-02-28 09:40:00,
2013-02-28 04:45:00,32.5,28.5,29.56,SW,225,0.0,1.0,85,0.00,,,-99.99,WeatherLink 5.5,2013-02-28 09:45:00,
2013-02-28 04:50:00,32.5,28.5,29.57,North,-999,0.0,0.0,85,0.00,,,-99.99,WeatherLink 5.5,2013-02-28 09:50:00,
2013-02-28 04:55:00,32.5,28.5,29.57,North,-999,0.0,0.0,85,0.00,,,-99.99,WeatherLink 5.5,2013-02-28 09:55:00,
2013-02-28 05:00:00,32.5,28.5,29.57,North,-999,0.0,0.0,85,0.00,,,-99.99,WeatherLink 5.5,2013-02-28 10:00:00,
2013-02-28 05:05:00,32.5,28.5,29.57,North,-999,0.0,0.0,85,0.00,,,-99.99,WeatherLink 5.5,2013-02-28 10:05:00,
2013-02-28 05:10:00,32.5,28.5,29.57,North,-999,0.0,0.0,85,0.00,,,-99.99,WeatherLink 5.5,2013-02-28 10:10:00,
2013-02-28 05:15:00,32.5,28.5,29.57,North,-999,0.0,0.0,85,0.00,,,-99.99,WeatherLink 5.5,2013-02-28 10:15:00,
2013-02-28 05:20:00,32.5,28.5,29.58,North,-999,0.0,0.0,85,0.00,,,-99.99,WeatherLink 5.5,2013-02-28 10:20:00,
2013-02-28 05:25:00,32.5,28.5,29.58,North,-999,0.0,0.0,85,0.00,,,-99.99,WeatherLink 5.5,2013-02-28 10:25:00,
2013-02-28 05:30:00,32.5,28.5,29.58,North,-999,0.0,0.0,85,0.00,,,-99.99,WeatherLink 5.5,2013-02-28 10:30:00,
2013-02-28 05:35:00,32.5,28.5,29.58,North,-999,0.0,0.0,85,0.00,,,-99.99,WeatherLink 5.5,2013-02-28 10:35:00,
2013-02-28 05:40:00,32.5,28.5,29.58,North,-999,0.0,0.0,85,0.00,,,-99.99,WeatherLink 5.5,2013-02-28 10:40:00,
2013-02-28 05:45:00,32.5,28.5,29.58,North,-999,0.0,0.0,85,0.00,,,-99.99,WeatherLink 5.5,2013-02-28 10:45:00,
2013-02-28 05:50:00,32.5,28.5,29.58,North,-999,0.0,0.0,85,0.00,,,-99.99,WeatherLink 5.5,2013-02-28 10:50:00,
2013-02-28 05:55:00,32.4,28.4,29.58,North,-999,0.0,0.0,85,0.00,,,-99.99,WeatherLink 5.5,2013-02-28 10:55:00,
2013-02-28 06:00:00,32.4,28.4,29.58,North,-999,0.0,0.0,85,0.00,,,-99.99,WeatherLink 5.5,2013-02-28 11:00:00,
2013-02-28 06:05:00,32.4,28.4,29.59,North,-999,0.0,0.0,85,0.00,,,-99.99,WeatherLink 5.5,2013-02-28 11:05:00,
2013-02-28 06:10:00,32.4,28.4,29.59,North,-999,0.0,0.0,85,0.00,,,-99.99,WeatherLink 5.5,2013-02-28 11:10:00,
2013-02-28 06:15:00,32.4,28.4,29.59,North,-999,0.0,0.0,85,0.00,,,-99.99,WeatherLink 5.5,2013-02-28 11:15:00,
2013-02-28 06:20:00,32.4,28.4,29.58,North,-999,0.0,0.0,85,0.00,,,-99.99,WeatherLink 5.5,2013-02-28 11:20:00,
2013-02-28 06:25:00,32.4,28.4,29.58,North,-999,0.0,0.0,85,0.00,,,-99.99,WeatherLink 5.5,2013-02-28 11:25:00,
2013-02-28 06:30:00,32.4,28.4,29.58,North,-999,0.0,0.0,85,0.00,,,-99.99,WeatherLink 5.5,2013-02-28 11:30:00,
2013-02-28 06:35:00,32.4,28.4,29.58,North,-999,0.0,0.0,85,0.00,,,-99.99,WeatherLink 5.5,2013-02-28 11:35:00,
2013-02-28 06:40:00,32.4,28.4,29.58,North,-999,0.0,0.0,85,0.00,,,-99.99,WeatherLink 5.5,2013-02-28 11:40:00,
2013-02-28 06:45:00,32.4,28.4,29.58,North,-999,0.0,0.0,85,0.00,,,-99.99,WeatherLink 5.5,2013-02-28 11:45:00,
2013-02-28 06:50:00,32.4,28.4,29.59,North,-999,0.0,0.0,85,0.00,,,-99.99,WeatherLink 5.5,2013-02-28 11:50:00,
2013-02-28 06:55:00,32.5,28.5,29.59,North,-999,0.0,0.0,85,0.00,,,-99.99,WeatherLink 5.5,2013-02-28 11:55:00,
2013-02-28 07:00:00,32.5,28.5,29.59,North,-999,0.0,0.0,85,0.00,,,-99.99,WeatherLink 5.5,2013-02-28 12:00:00,
2013-02-28 07:05:00,32.8,28.8,29.59,North,-999,0.0,0.0,85,0.00,,,-99.99,WeatherLink 5.5,2013-02-28 12:05:00,
2013-02-28 07:10:00,33.1,29.1,29.59,SW,225,0.0,1.0,85,0.00,,,-99.99,WeatherLink 5.5,2013-02-28 12:10:00,
2013-02-28 07:15:00,33.1,29.1,29.59,SW,225,0.0,1.0,85,0.00,,,-99.99,WeatherLink 5.5,2013-02-28 12:15:00,
2013-02-28 07:20:00,33.5,29.5,29.58,SW,225,0.0,2.0,85,0.00,,,-99.99,WeatherLink 5.5,2013-02-28 12:20:00,
2013-02-28 07:25:00,33.7,29.7,29.58,SW,225,0.0,1.0,85,0.00,,,-99.99,WeatherLink 5.5,2013-02-28 12:25:00,
2013-02-28 07:30:00,33.7,29.7,29.58,SW,225,0.0,1.0,85,0.00,,,-99.99,WeatherLink 5.5,2013-02-28 12:30:00,
2013-02-28 07:35:00,33.8,29.8,29.58,SW,225,0.0,1.0,85,0.00,,,-99.99,WeatherLink 5.5,2013-02-28 12:35:00,
2013-02-28 07:40:00,33.7,29.7,29.58,SW,225,1.0,4.0,85,0.00,,,-99.99,WeatherLink 5.5,2013-02-28 12:40:00,
2013-02-28 07:45:00,33.7,29.7,29.58,SW,225,1.0,4.0,85,0.00,,,-99.99,WeatherLink 5.5,2013-02-28 12:45:00,
2013-02-28 07:50:00,33.7,29.7,29.58,North,-999,0.0,0.0,85,0.00,,,-99.99,WeatherLink 5.5,2013-02-28 12:50:00,
2013-02-28 07:55:00,33.8,29.8,29.58,SW,225,0.0,2.0,85,0.00,,,-99.99,WeatherLink 5.5,2013-02-28 12:55:00,
2013-02-28 08:00:00,33.8,29.8,29.58,SW,225,0.0,2.0,85,0.00,,,-99.99,WeatherLink 5.5,2013-02-28 13:00:00,
2013-02-28 08:05:00,34.1,30.1,29.58,North,-999,0.0,0.0,85,0.00,,,-99.99,WeatherLink 5.5,2013-02-28 13:05:00,
2013-02-28 08:10:00,34.3,30.3,29.58,North,-999,0.0,0.0,85,0.00,,,-99.99,WeatherLink 5.5,2013-02-28 13:10:00,
2013-02-28 08:15:00,34.3,30.3,29.58,North,-999,0.0,0.0,85,0.00,,,-99.99,WeatherLink 5.5,2013-02-28 13:15:00,
2013-02-28 08:20:00,34.1,30.1,29.58,SW,225,0.0,1.0,85,0.00,,,-99.99,WeatherLink 5.5,2013-02-28 13:20:00,
2013-02-28 08:25:00,34.0,30.0,29.58,SW,225,1.0,2.0,85,0.00,,,-99.99,WeatherLink 5.5,2013-02-28 13:25:00,
2013-02-28 08:30:00,34.0,30.0,29.58,SW,225,1.0,2.0,85,0.00,,,-99.99,WeatherLink 5.5,2013-02-28 13:30:00,
2013-02-28 08:35:00,33.8,29.8,29.59,SW,225,0.0,1.0,85,0.00,,,-99.99,WeatherLink 5.5,2013-02-28 13:35:00,
2013-02-28 08:40:00,34.1,30.1,29.59,North,-999,0.0,0.0,85,0.00,,,-99.99,WeatherLink 5.5,2013-02-28 13:40:00,
2013-02-28 08:45:00,34.1,30.1,29.59,North,-999,0.0,0.0,85,0.00,,,-99.99,WeatherLink 5.5,2013-02-28 13:45:00,
2013-02-28 08:50:00,35.0,30.7,29.59,North,-999,0.0,0.0,84,0.00,,,-99.99,WeatherLink 5.5,2013-02-28 13:50:00,
2013-02-28 08:55:00,35.2,30.9,29.59,North,-999,0.0,0.0,84,0.00,,,-99.99,WeatherLink 5.5,2013-02-28 13:55:00,
2013-02-28 09:00:00,35.2,30.9,29.59,North,-999,0.0,0.0,84,0.00,,,-99.99,WeatherLink 5.5,2013-02-28 14:00:00,
2013-02-28 09:05:00,35.2,30.9,29.59,SW,225,0.0,2.0,84,0.00,,,-99.99,WeatherLink 5.5,2013-02-28 14:05:00,
2013-02-28 09:10:00,35.3,30.7,29.59,SW,225,0.0,2.0,83,0.00,,,-99.99,WeatherLink 5.5,2013-02-28 14:10:00,
2013-02-28 09:15:00,35.3,30.7,29.59,SW,225,0.0,2.0,83,0.00,,,-99.99,WeatherLink 5.5,2013-02-28 14:15:00,
2013-02-28 09:20:00,35.3,30.4,29.59,SE,135,1.0,4.0,82,0.00,,,-99.99,WeatherLink 5.5,2013-02-28 14:20:00,
2013-02-28 09:25:00,35.5,30.5,29.59,SE,135,2.0,7.0,82,0.00,,,-99.99,WeatherLink 5.5,2013-02-28 14:25:00,
2013-02-28 09:30:00,35.5,30.5,29.59,SE,135,2.0,7.0,82,0.00,,,-99.99,WeatherLink 5.5,2013-02-28 14:30:00,
2013-02-28 09:35:00,35.9,30.6,29.60,ESE,112,0.0,2.0,81,0.00,,,-99.99,WeatherLink 5.5,2013-02-28 14:35:00,
2013-02-28 09:40:00,36.2,30.6,29.60,SE,135,0.0,2.0,80,0.00,,,-99.99,WeatherLink 5.5,2013-02-28 14:40:00,
2013-02-28 09:45:00,36.2,30.6,29.60,SE,135,0.0,2.0,80,0.00,,,-99.99,WeatherLink 5.5,2013-02-28 14:45:00,
2013-02-28 09:50:00,36.0,30.4,29.60,SSE,157,0.0,2.0,80,0.00,,,-99.99,WeatherLink 5.5,2013-02-28 14:50:00,
2013-02-28 09:55:00,36.2,30.3,29.60,SW,225,0.0,4.0,79,0.00,,,-99.99,WeatherLink 5.5,2013-02-28 14:55:00,
2013-02-28 10:00:00,36.2,30.3,29.60,SW,225,0.0,4.0,79,0.00,,,-99.99,WeatherLink 5.5,2013-02-28 15:00:00,
2013-02-28 10:05:00,36.3,30.4,29.59,WSW,247,1.0,4.0,79,0.00,,,-99.99,WeatherLink 5.5,2013-02-28 15:05:00,
2013-02-28 10:10:00,36.5,30.3,29.59,WSW,247,0.0,4.0,78,0.00,,,-99.99,WeatherLink 5.5,2013-02-28 15:10:00,
2013-02-28 10:15:00,36.5,30.3,29.59,WSW,247,0.0,4.0,78,0.00,,,-99.99,WeatherLink 5.5,2013-02-28 15:15:00,
2013-02-28 10:20:00,37.0,30.5,29.58,SW,225,0.0,2.0,77,0.00,,,-99.99,WeatherLink 5.5,2013-02-28 15:20:00,
2013-02-28 10:25:00,37.6,30.7,29.58,SW,225,0.0,2.0,76,0.00,,,-99.99,WeatherLink 5.5,2013-02-28 15:25:00,
2013-02-28 10:30:00,37.6,30.7,29.58,SW,225,0.0,2.0,76,0.00,,,-99.99,WeatherLink 5.5,2013-02-28 15:30:00,
2013-02-28 10:35:00,38.0,30.4,29.58,SSW,202,2.0,6.0,74,0.00,,,-99.99,WeatherLink 5.5,2013-02-28 15:35:00,
2013-02-28 10:40:00,38.3,30.7,29.58,SW,225,1.0,4.0,74,0.00,,,-99.99,WeatherLink 5.5,2013-02-28 15:40:00,
2013-02-28 10:45:00,38.3,30.7,29.58,SW,225,1.0,4.0,74,0.00,,,-99.99,WeatherLink 5.5,2013-02-28 15:45:00,
2013-02-28 10:50:00,39.5,30.9,29.58,SSW,202,1.0,6.0,71,0.00,,,-99.99,WeatherLink 5.5,2013-02-28 15:50:00,
2013-02-28 10:55:00,39.6,30.6,29.58,SSE,157,0.0,6.0,70,0.00,,,-99.99,WeatherLink 5.5,2013-02-28 15:55:00,
2013-02-28 11:00:00,39.6,30.6,29.58,SSE,157,0.0,6.0,70,0.00,,,-99.99,WeatherLink 5.5,2013-02-28 16:00:00,
2013-02-28 11:05:00,40.0,30.6,29.58,WSW,247,0.0,4.0,69,0.00,,,-99.99,WeatherLink 5.5,2013-02-28 16:05:00,
2013-02-28 11:10:00,40.2,30.5,29.58,WSW,247,0.0,1.0,68,0.00,,,-99.99,WeatherLink 5.5,2013-02-28 16:10:00,
2013-02-28 11:15:00,40.2,30.5,29.58,WSW,247,0.0,1.0,68,0.00,,,-99.99,WeatherLink 5.5,2013-02-28 16:15:00,
2013-02-28 11:20:00,39.8,30.1,29.58,SW,225,2.0,8.0,68,0.00,,,-99.99,WeatherLink 5.5,2013-02-28 16:20:00,
2013-02-28 11:25:00,39.9,30.2,29.58,WSW,247,3.0,6.0,68,0.00,,,-99.99,WeatherLink 5.5,2013-02-28 16:25:00,
2013-02-28 11:30:00,39.9,30.2,29.58,WSW,247,3.0,6.0,68,0.00,,,-99.99,WeatherLink 5.5,2013-02-28 16:30:00,
2013-02-28 11:35:00,40.2,30.1,29.57,West,270,4.0,8.0,67,0.00,,,-99.99,WeatherLink 5.5,2013-02-28 16:35:00,
2013-02-28 11:40:00,40.2,30.1,29.57,West,270,3.0,8.0,67,0.00,,,-99.99,WeatherLink 5.5,2013-02-28 16:40:00,
2013-02-28 11:45:00,40.2,30.1,29.57,West,270,3.0,8.0,67,0.00,,,-99.99,WeatherLink 5.5,2013-02-28 16:45:00,
2013-02-28 11:50:00,40.6,30.1,29.57,WSW,247,1.0,6.0,66,0.00,,,-99.99,WeatherLink 5.5,2013-02-28 16:50:00,
2013-02-28 11:55:00,40.8,30.3,29.57,WSW,247,0.0,1.0,66,0.00,,,-99.99,WeatherLink 5.5,2013-02-28 16:55:00,
2013-02-28 12:00:00,40.8,30.3,29.57,WSW,247,0.0,1.0,66,0.00,,,-99.99,WeatherLink 5.5,2013-02-28 17:00:00,
2013-02-28 12:05:00,41.5,30.6,29.56,WSW,247,0.0,4.0,65,0.00,,,-99.99,WeatherLink 5.5,2013-02-28 17:05:00,
2013-02-28 12:10:00,41.6,30.7,29.56,WSW,247,0.0,1.0,65,0.00,,,-99.99,WeatherLink 5.5,2013-02-28 17:10:00,
2013-02-28 12:15:00,41.6,30.7,29.56,WSW,247,0.0,1.0,65,0.00,,,-99.99,WeatherLink 5.5,2013-02-28 17:15:00,
2013-02-28 12:20:00,42.2,30.5,29.55,SW,225,2.0,7.0,63,0.00,,,-99.99,WeatherLink 5.5,2013-02-28 17:20:00,
2013-02-28 12:25:00,42.0,30.3,29.55,WSW,247,0.0,6.0,63,0.00,,,-99.99,WeatherLink 5.5,2013-02-28 17:25:00,
2013-02-28 12:30:00,42.0,30.3,29.55,WSW,247,0.0,6.0,63,0.00,,,-99.99,WeatherLink 5.5,2013-02-28 17:30:00,
2013-02-28 12:35:00,41.8,30.5,29.55,NW,315,0.0,4.0,64,0.00,,,-99.99,WeatherLink 5.5,2013-02-28 17:35:00,
2013-02-28 12:40:00,41.8,30.5,29.55,NW,315,1.0,4.0,64,0.00,,,-99.99,WeatherLink 5.5,2013-02-28 17:40:00,
2013-02-28 12:45:00,41.8,30.5,29.55,NW,315,1.0,4.0,64,0.00,,,-99.99,WeatherLink 5.5,2013-02-28 17:45:00,
2013-02-28 12:50:00,42.3,30.6,29.54,NW,315,1.0,4.0,63,0.00,,,-99.99,WeatherLink 5.5,2013-02-28 17:50:00,
2013-02-28 12:55:00,42.3,31.0,29.54,NW,315,1.0,4.0,64,0.00,,,-99.99,WeatherLink 5.5,2013-02-28 17:55:00,
2013-02-28 13:00:00,42.3,31.0,29.54,NW,315,1.0,4.0,64,0.00,,,-99.99,WeatherLink 5.5,2013-02-28 18:00:00,
2013-02-28 13:05:00,42.5,30.4,29.54,NW,315,2.0,6.0,62,0.00,,,-99.99,WeatherLink 5.5,2013-02-28 18:05:00,
2013-02-28 13:10:00,42.3,30.2,29.54,SW,225,3.0,7.0,62,0.00,,,-99.99,WeatherLink 5.5,2013-02-28 18:10:00,
2013-02-28 13:15:00,42.3,30.2,29.54,SW,225,3.0,7.0,62,0.00,,,-99.99,WeatherLink 5.5,2013-02-28 18:15:00,
2013-02-28 13:20:00,42.3,30.6,29.53,West,270,2.0,6.0,63,0.00,,,-99.99,WeatherLink 5.5,2013-02-28 18:20:00,
2013-02-28 13:25:00,42.8,30.7,29.53,WSW,247,0.0,1.0,62,0.00,,,-99.99,WeatherLink 5.5,2013-02-28 18:25:00,
2013-02-28 13:30:00,42.8,30.7,29.53,WSW,247,0.0,1.0,62,0.00,,,-99.99,WeatherLink 5.5,2013-02-28 18:30:00,
2013-02-28 13:35:00,43.5,30.9,29.53,WSW,247,0.0,2.0,61,0.00,,,-99.99,WeatherLink 5.5,2013-02-28 18:35:00,
2013-02-28 13:40:00,43.9,30.5,29.53,West,270,1.0,6.0,59,0.00,,,-99.99,WeatherLink 5.5,2013-02-28 18:40:00,
2013-02-28 13:45:00,43.9,30.5,29.53,West,270,1.0,6.0,59,0.00,,,-99.99,WeatherLink 5.5,2013-02-28 18:45:00,
2013-02-28 13:50:00,43.9,30.9,29.52,WSW,247,2.0,7.0,60,0.00,,,-99.99,WeatherLink 5.5,2013-02-28 18:50:00,
2013-02-28 13:55:00,44.3,30.4,29.52,West,270,2.0,7.0,58,0.00,,,-99.99,WeatherLink 5.5,2013-02-28 18:55:00,
2013-02-28 14:00:00,44.3,30.4,29.52,West,270,2.0,7.0,58,0.00,,,-99.99,WeatherLink 5.5,2013-02-28 19:00:00,
2013-02-28 14:05:00,44.6,30.7,29.52,WSW,247,1.0,7.0,58,0.00,,,-99.99,WeatherLink 5.5,2013-02-28 19:05:00,
2013-02-28 14:10:00,44.8,31.3,29.52,WSW,247,1.0,6.0,59,0.00,,,-99.99,WeatherLink 5.5,2013-02-28 19:10:00,
2013-02-28 14:15:00,44.8,31.3,29.52,WSW,247,1.0,6.0,59,0.00,,,-99.99,WeatherLink 5.5,2013-02-28 19:15:00,
2013-02-28 14:20:00,44.5,31.1,29.52,WSW,247,1.0,6.0,59,0.00,,,-99.99,WeatherLink 5.5,2013-02-28 19:20:00,
2013-02-28 14:25:00,44.0,30.6,29.52,WSW,247,0.0,6.0,59,0.00,,,-99.99,WeatherLink 5.5,2013-02-28 19:25:00,
2013-02-28 14:30:00,44.0,30.6,29.52,WSW,247,0.0,6.0,59,0.00,,,-99.99,WeatherLink 5.5,2013-02-28 19:30:00,
2013-02-28 14:35:00,43.5,30.5,29.52,West,270,1.0,4.0,60,0.00,,,-99.99,WeatherLink 5.5,2013-02-28 19:35:00,
2013-02-28 14:40:00,43.3,30.3,29.52,West,270,2.0,7.0,60,0.00,,,-99.99,WeatherLink 5.5,2013-02-28 19:40:00,
2013-02-28 14:45:00,43.3,30.3,29.52,West,270,2.0,7.0,60,0.00,,,-99.99,WeatherLink 5.5,2013-02-28 19:45:00,
2013-02-28 14:50:00,43.3,30.3,29.52,NNW,337,1.0,8.0,60,0.00,,,-99.99,WeatherLink 5.5,2013-02-28 19:50:00,
2013-02-28 14:55:00,43.3,29.9,29.52,NNW,337,0.0,7.0,59,0.00,,,-99.99,WeatherLink 5.5,2013-02-28 19:55:00,
2013-02-28 15:00:00,43.3,29.9,29.52,NNW,337,0.0,7.0,59,0.00,,,-99.99,WeatherLink 5.5,2013-02-28 20:00:00,
2013-02-28 15:05:00,42.9,30.0,29.51,West,270,1.0,7.0,60,0.00,,,-99.99,WeatherLink 5.5,2013-02-28 20:05:00,
2013-02-28 15:10:00,42.8,29.9,29.51,West,270,2.0,4.0,60,0.00,,,-99.99,WeatherLink 5.5,2013-02-28 20:10:00,
2013-02-28 15:15:00,42.8,29.9,29.51,West,270,2.0,4.0,60,0.00,,,-99.99,WeatherLink 5.5,2013-02-28 20:15:00,
2013-02-28 15:20:00,42.8,30.7,29.51,WSW,247,0.0,4.0,62,0.00,,,-99.99,WeatherLink 5.5,2013-02-28 20:20:00,
2013-02-28 15:25:00,42.9,30.4,29.51,North,-999,0.0,0.0,61,0.00,,,-99.99,WeatherLink 5.5,2013-02-28 20:25:00,
2013-02-28 15:30:00,42.9,30.4,29.51,North,-999,0.0,0.0,61,0.00,,,-99.99,WeatherLink 5.5,2013-02-28 20:30:00,
2013-02-28 15:35:00,42.8,30.7,29.51,WSW,247,2.0,6.0,62,0.00,,,-99.99,WeatherLink 5.5,2013-02-28 20:35:00,
2013-02-28 15:40:00,42.9,30.8,29.51,WSW,247,1.0,4.0,62,0.00,,,-99.99,WeatherLink 5.5,2013-02-28 20:40:00,
2013-02-28 15:45:00,42.9,30.8,29.51,WSW,247,1.0,4.0,62,0.00,,,-99.99,WeatherLink 5.5,2013-02-28 20:45:00,
2013-02-28 15:50:00,43.5,30.9,29.50,WSW,247,0.0,4.0,61,0.00,,,-99.99,WeatherLink 5.5,2013-02-28 20:50:00,
2013-02-28 15:55:00,43.6,31.0,29.50,WSW,247,1.0,4.0,61,0.00,,,-99.99,WeatherLink 5.5,2013-02-28 20:55:00,
2013-02-28 16:00:00,43.6,31.0,29.50,WSW,247,1.0,4.0,61,0.00,,,-99.99,WeatherLink 5.5,2013-02-28 21:00:00,
2013-02-28 16:05:00,43.3,30.7,29.51,WSW,247,2.0,6.0,61,0.00,,,-99.99,WeatherLink 5.5,2013-02-28 21:05:00,
2013-02-28 16:10:00,43.5,30.9,29.51,WSW,247,0.0,4.0,61,0.00,,,-99.99,WeatherLink 5.5,2013-02-28 21:10:00,
2013-02-28 16:15:00,43.5,30.9,29.51,WSW,247,0.0,4.0,61,0.00,,,-99.99,WeatherLink 5.5,2013-02-28 21:15:00,
2013-02-28 16:20:00,43.5,30.5,29.50,West,270,2.0,7.0,60,0.00,,,-99.99,WeatherLink 5.5,2013-02-28 21:20:00,
2013-02-28 16:25:00,43.3,30.7,29.50,West,270,0.0,2.0,61,0.00,,,-99.99,WeatherLink 5.5,2013-02-28 21:25:00,
2013-02-28 16:30:00,43.3,30.7,29.50,West,270,0.0,2.0,61,0.00,,,-99.99,WeatherLink 5.5,2013-02-28 21:30:00,
2013-02-28 16:35:00,43.2,30.6,29.50,West,270,1.0,6.0,61,0.00,,,-99.99,WeatherLink 5.5,2013-02-28 21:35:00,
2013-02-28 16:40:00,43.0,30.5,29.50,West,270,0.0,1.0,61,0.00,,,-99.99,WeatherLink 5.5,2013-02-28 21:40:00,
2013-02-28 16:45:00,43.0,30.5,29.50,West,270,0.0,1.0,61,0.00,,,-99.99,WeatherLink 5.5,2013-02-28 21:45:00,
2013-02-28 16:50:00,42.6,30.5,29.50,West,270,0.0,1.0,62,0.00,,,-99.99,WeatherLink 5.5,2013-02-28 21:50:00,
2013-02-28 16:55:00,42.5,30.8,29.50,West,270,0.0,2.0,63,0.00,,,-99.99,WeatherLink 5.5,2013-02-28 21:55:00,
2013-02-28 17:00:00,42.5,30.8,29.50,West,270,0.0,2.0,63,0.00,,,-99.99,WeatherLink 5.5,2013-02-28 22:00:00,
2013-02-28 17:05:00,41.9,31.0,29.51,West,270,0.0,1.0,65,0.00,,,-99.99,WeatherLink 5.5,2013-02-28 22:05:00,
2013-02-28 17:10:00,41.8,30.9,29.51,WSW,247,0.0,6.0,65,0.00,,,-99.99,WeatherLink 5.5,2013-02-28 22:10:00,
2013-02-28 17:15:00,41.8,30.9,29.51,WSW,247,0.0,6.0,65,0.00,,,-99.99,WeatherLink 5.5,2013-02-28 22:15:00,
2013-02-28 17:20:00,41.5,31.0,29.51,North,-999,0.0,0.0,66,0.00,,,-99.99,WeatherLink 5.5,2013-02-28 22:20:00,
2013-02-28 17:25:00,41.3,31.2,29.51,North,-999,0.0,0.0,67,0.00,,,-99.99,WeatherLink 5.5,2013-02-28 22:25:00,
2013-02-28 17:30:00,41.3,31.2,29.51,North,-999,0.0,0.0,67,0.00,,,-99.99,WeatherLink 5.5,2013-02-28 22:30:00,
2013-02-28 17:35:00,41.0,30.9,29.51,WSW,247,0.0,1.0,67,0.00,,,-99.99,WeatherLink 5.5,2013-02-28 22:35:00,
2013-02-28 17:40:00,40.9,30.8,29.51,WSW,247,0.0,1.0,67,0.00,,,-99.99,WeatherLink 5.5,2013-02-28 22:40:00,
2013-02-28 17:45:00,40.9,30.8,29.51,WSW,247,0.0,1.0,67,0.00,,,-99.99,WeatherLink 5.5,2013-02-28 22:45:00,
2013-02-28 17:50:00,40.5,30.8,29.51,North,-999,0.0,0.0,68,0.00,,,-99.99,WeatherLink 5.5,2013-02-28 22:50:00,
2013-02-28 17:55:00,40.3,30.9,29.51,North,-999,0.0,0.0,69,0.00,,,-99.99,WeatherLink 5.5,2013-02-28 22:55:00,
2013-02-28 18:00:00,40.3,30.9,29.51,North,-999,0.0,0.0,69,0.00,,,-99.99,WeatherLink 5.5,2013-02-28 23:00:00,
2013-02-28 18:05:00,39.8,30.8,29.51,North,-999,0.0,0.0,70,0.00,,,-99.99,WeatherLink 5.5,2013-02-28 23:05:00,
2013-02-28 18:10:00,39.6,30.6,29.51,North,-999,0.0,0.0,70,0.00,,,-99.99,WeatherLink 5.5,2013-02-28 23:10:00,
2013-02-28 18:15:00,39.6,30.6,29.51,North,-999,0.0,0.0,70,0.00,,,-99.99,WeatherLink 5.5,2013-02-28 23:15:00,
2013-02-28 18:20:00,39.2,30.9,29.51,North,-999,0.0,0.0,72,0.00,,,-99.99,WeatherLink 5.5,2013-02-28 23:20:00,
2013-02-28 18:25:00,39.0,30.7,29.51,North,-999,0.0,0.0,72,0.00,,,-99.99,WeatherLink 5.5,2013-02-28 23:25:00,
2013-02-28 18:30:00,39.0,30.7,29.51,North,-999,0.0,0.0,72,0.00,,,-99.99,WeatherLink 5.5,2013-02-28 23:30:00,
2013-02-28 18:35:00,38.8,30.9,29.51,North,-999,0.0,0.0,73,0.00,,,-99.99,WeatherLink 5.5,2013-02-28 23:35:00,
2013-02-28 18:40:00,38.5,30.9,29.51,North,-999,0.0,0.0,74,0.00,,,-99.99,WeatherLink 5.5,2013-02-28 23:40:00,
2013-02-28 18:45:00,38.5,30.9,29.51,North,-999,0.0,0.0,74,0.00,,,-99.99,WeatherLink 5.5,2013-02-28 23:45:00,
2013-02-28 18:50:00,38.2,30.6,29.52,North,-999,0.0,0.0,74,0.00,,,-99.99,WeatherLink 5.5,2013-02-28 23:50:00,
2013-02-28 18:55:00,38.0,30.4,29.52,North,-999,0.0,0.0,74,0.00,,,-99.99,WeatherLink 5.5,2013-02-28 23:55:00,
2013-02-28 19:00:00,38.0,30.4,29.52,North,-999,0.0,0.0,74,0.00,,,-99.99,WeatherLink 5.5,2013-03-01 00:00:00,
2013-02-28 19:05:00,37.6,30.4,29.51,North,-999,0.0,0.0,75,0.00,,,-99.99,WeatherLink 5.5,2013-03-01 00:05:00,
2013-02-28 19:10:00,37.3,30.1,29.51,North,-999,0.0,0.0,75,0.00,,,-99.99,WeatherLink 5.5,2013-03-01 00:10:00,
2013-02-28 19:15:00,37.3,30.1,29.51,North,-999,0.0,0.0,75,0.00,,,-99.99,WeatherLink 5.5,2013-03-01 00:15:00,
2013-02-28 19:20:00,36.9,29.7,29.51,North,-999,0.0,0.0,75,0.00,,,-99.99,WeatherLink 5.5,2013-03-01 00:20:00,
2013-02-28 19:25:00,36.6,29.7,29.51,North,-999,0.0,0.0,76,0.00,,,-99.99,WeatherLink 5.5,2013-03-01 00:25:00,
2013-02-28 19:30:00,36.6,29.7,29.51,North,-999,0.0,0.0,76,0.00,,,-99.99,WeatherLink 5.5,2013-03-01 00:30:00,
2013-02-28 19:35:00,35.9,29.4,29.51,North,-999,0.0,0.0,77,0.00,,,-99.99,WeatherLink 5.5,2013-03-01 00:35:00,
2013-02-28 19:40:00,35.6,29.4,29.51,North,-999,0.0,0.0,78,0.00,,,-99.99,WeatherLink 5.5,2013-03-01 00:40:00,
2013-02-28 19:45:00,35.6,29.4,29.51,North,-999,0.0,0.0,78,0.00,,,-99.99,WeatherLink 5.5,2013-03-01 00:45:00,
2013-02-28 19:50:00,35.5,29.3,29.51,North,-999,0.0,0.0,78,0.00,,,-99.99,WeatherLink 5.5,2013-03-01 00:50:00,
2013-02-28 19:55:00,35.3,29.1,29.51,North,-999,0.0,0.0,78,0.00,,,-99.99,WeatherLink 5.5,2013-03-01 00:55:00,
2013-02-28 20:00:00,35.3,29.1,29.51,North,-999,0.0,0.0,78,0.00,,,-99.99,WeatherLink 5.5,2013-03-01 01:00:00,
2013-02-28 20:05:00,35.3,29.4,29.51,North,-999,0.0,0.0,79,0.00,,,-99.99,WeatherLink 5.5,2013-03-01 01:05:00,
2013-02-28 20:10:00,35.3,29.7,29.51,North,-999,0.0,0.0,80,0.00,,,-99.99,WeatherLink 5.5,2013-03-01 01:10:00,
2013-02-28 20:15:00,35.3,29.7,29.51,North,-999,0.0,0.0,80,0.00,,,-99.99,WeatherLink 5.5,2013-03-01 01:15:00,
2013-02-28 20:20:00,35.5,29.9,29.51,North,-999,0.0,0.0,80,0.00,,,-99.99,WeatherLink 5.5,2013-03-01 01:20:00,
2013-02-28 20:25:00,35.5,29.9,29.51,North,-999,0.0,0.0,80,0.00,,,-99.99,WeatherLink 5.5,2013-03-01 01:25:00,
2013-02-28 20:30:00,35.5,29.9,29.51,North,-999,0.0,0.0,80,0.00,,,-99.99,WeatherLink 5.5,2013-03-01 01:30:00,
2013-02-28 20:35:00,35.5,29.9,29.51,North,-999,0.0,0.0,80,0.00,,,-99.99,WeatherLink 5.5,2013-03-01 01:35:00,
2013-02-28 20:40:00,35.5,29.9,29.51,North,-999,0.0,0.0,80,0.00,,,-99.99,WeatherLink 5.5,2013-03-01 01:40:00,
2013-02-28 20:45:00,35.5,29.9,29.51,North,-999,0.0,0.0,80,0.00,,,-99.99,WeatherLink 5.5,2013-03-01 01:45:00,
2013-02-28 20:50:00,35.5,30.2,29.51,North,-999,0.0,0.0,81,0.00,,,-99.99,WeatherLink 5.5,2013-03-01 01:50:00,
2013-02-28 20:55:00,35.5,30.2,29.51,North,-999,0.0,0.0,81,0.00,,,-99.99,WeatherLink 5.5,2013-03-01 01:55:00,
2013-02-28 21:00:00,35.5,30.2,29.51,North,-999,0.0,0.0,81,0.00,,,-99.99,WeatherLink 5.5,2013-03-01 02:00:00,
2013-02-28 21:05:00,35.5,30.2,29.51,North,-999,0.0,0.0,81,0.00,,,-99.99,WeatherLink 5.5,2013-03-01 02:05:00,
2013-02-28 21:10:00,35.6,30.3,29.51,North,-999,0.0,0.0,81,0.00,,,-99.99,WeatherLink 5.5,2013-03-01 02:10:00,
2013-02-28 21:15:00,35.6,30.3,29.51,North,-999,0.0,0.0,81,0.00,,,-99.99,WeatherLink 5.5,2013-03-01 02:15:00,
2013-02-28 21:20:00,35.7,30.4,29.51,North,-999,0.0,0.0,81,0.00,,,-99.99,WeatherLink 5.5,2013-03-01 02:20:00,
2013-02-28 21:25:00,35.7,30.4,29.51,North,-999,0.0,0.0,81,0.00,,,-99.99,WeatherLink 5.5,2013-03-01 02:25:00,
2013-02-28 21:30:00,35.7,30.4,29.51,North,-999,0.0,0.0,81,0.00,,,-99.99,WeatherLink 5.5,2013-03-01 02:30:00,
2013-02-28 21:35:00,35.6,30.3,29.51,WSW,247,0.0,1.0,81,0.00,,,-99.99,WeatherLink 5.5,2013-03-01 02:35:00,
2013-02-28 21:40:00,35.6,30.3,29.51,WSW,247,1.0,1.0,81,0.00,,,-99.99,WeatherLink 5.5,2013-03-01 02:40:00,
2013-02-28 21:45:00,35.6,30.3,29.51,WSW,247,1.0,1.0,81,0.00,,,-99.99,WeatherLink 5.5,2013-03-01 02:45:00,
2013-02-28 21:50:00,35.5,30.2,29.51,North,-999,0.0,0.0,81,0.00,,,-99.99,WeatherLink 5.5,2013-03-01 02:50:00,
2013-02-28 21:55:00,35.5,30.2,29.51,North,-999,0.0,0.0,81,0.00,,,-99.99,WeatherLink 5.5,2013-03-01 02:55:00,
2013-02-28 22:00:00,35.5,30.2,29.51,North,-999,0.0,0.0,81,0.00,,,-99.99,WeatherLink 5.5,2013-03-01 03:00:00,
2013-02-28 22:05:00,35.5,30.2,29.51,WSW,247,0.0,1.0,81,0.00,,,-99.99,WeatherLink 5.5,2013-03-01 03:05:00,
2013-02-28 22:10:00,35.5,30.2,29.51,WSW,247,0.0,1.0,81,0.00,,,-99.99,WeatherLink 5.5,2013-03-01 03:10:00,
2013-02-28 22:15:00,35.5,30.2,29.51,WSW,247,0.0,1.0,81,0.00,,,-99.99,WeatherLink 5.5,2013-03-01 03:15:00,
2013-02-28 22:20:00,35.6,30.6,29.50,WSW,247,0.0,1.0,82,0.00,,,-99.99,WeatherLink 5.5,2013-03-01 03:20:00,
2013-02-28 22:25:00,35.6,30.6,29.50,North,-999,0.0,0.0,82,0.00,,,-99.99,WeatherLink 5.5,2013-03-01 03:25:00,
2013-02-28 22:30:00,35.6,30.6,29.50,North,-999,0.0,0.0,82,0.00,,,-99.99,WeatherLink 5.5,2013-03-01 03:30:00,
2013-02-28 22:35:00,36.0,30.7,29.50,North,-999,0.0,0.0,81,0.00,,,-99.99,WeatherLink 5.5,2013-03-01 03:35:00,
2013-02-28 22:40:00,36.0,30.7,29.50,WSW,247,0.0,2.0,81,0.00,,,-99.99,WeatherLink 5.5,2013-03-01 03:40:00,
2013-02-28 22:45:00,36.0,30.7,29.50,WSW,247,0.0,2.0,81,0.00,,,-99.99,WeatherLink 5.5,2013-03-01 03:45:00,
2013-02-28 22:50:00,36.2,30.9,29.50,WSW,247,0.0,1.0,81,0.00,,,-99.99,WeatherLink 5.5,2013-03-01 03:50:00,
2013-02-28 22:55:00,36.3,30.7,29.50,North,-999,0.0,0.0,80,0.00,,,-99.99,WeatherLink 5.5,2013-03-01 03:55:00,
2013-02-28 23:00:00,36.3,30.7,29.50,North,-999,0.0,0.0,80,0.00,,,-99.99,WeatherLink 5.5,2013-03-01 04:00:00,
2013-02-28 23:05:00,36.5,30.9,29.50,WSW,247,0.0,2.0,80,0.00,,,-99.99,WeatherLink 5.5,2013-03-01 04:05:00,
2013-02-28 23:10:00,36.6,31.0,29.50,WSW,247,0.0,2.0,80,0.00,,,-99.99,WeatherLink 5.5,2013-03-01 04:10:00,
2013-02-28 23:15:00,36.6,31.0,29.50,WSW,247,0.0,2.0,80,0.00,,,-99.99,WeatherLink 5.5,2013-03-01 04:15:00,
2013-02-28 23:20:00,36.7,30.8,29.50,WSW,247,0.0,1.0,79,0.00,,,-99.99,WeatherLink 5.5,2013-03-01 04:20:00,
2013-02-28 23:25:00,36.7,30.8,29.50,North,-999,0.0,0.0,79,0.00,,,-99.99,WeatherLink 5.5,2013-03-01 04:25:00,
2013-02-28 23:30:00,36.7,30.8,29.50,North,-999,0.0,0.0,79,0.00,,,-99.99,WeatherLink 5.5,2013-03-01 04:30:00,
2013-02-28 23:35:00,36.7,30.8,29.50,WSW,247,0.0,4.0,79,0.00,,,-99.99,WeatherLink 5.5,2013-03-01 04:35:00,
2013-02-28 23:40:00,36.6,30.7,29.50,WSW,247,0.0,2.0,79,0.00,,,-99.99,WeatherLink 5.5,2013-03-01 04:40:00,
2013-02-28 23:45:00,36.6,30.7,29.50,WSW,247,0.0,2.0,79,0.00,,,-99.99,WeatherLink 5.5,2013-03-01 04:45:00,
2013-02-28 23:55:00,36.5,30.6,29.50,North,-999,0.0,0.0,79,0.00,,,-99.99,WeatherLink 5.5,2013-03-01 04:55:00,